Briefing drone pour Puylaurens

Rechercher une autre localisation

Conditions de vol :


Nous sommes le : Samedi 13 avril 2024
Il est 18:34 UTC (20:34 LT)

Lever de soleil : 04:44 UTC (06:44 LT)
Coucher de soleil : 18:59 UTC (20:59 LT)

Météo

L'essentiel des conditions de vol

VIGILANCE MÉTÉO FRANCE - Tarn (81)
Pas de vigilances particulieres
METAR de LFCK
LFCK 131830Z AUTO 20004KT CAVOK 24/11 Q1025 NOSIG

Date d'émission: 13/04/2024
Heure d'émission: 18:30 UTC
Vent: 200° pour 4 KT (7 km/h)
Visibilité horizontale: > 10 km
Plafond : Plafond et visibilité OK (CAVOK)
Température: 24 °C
Point de rosée: 11 °C
Humidité: 44%
Pression (QNH): 1025 hPa
Conditions: Pas de changement dans les 2 heures (NOSIG)
Prévision 24h pour Castres (12 km)
Vent : 320° pour 2 KT (7 km/h)
Temperature Maxi: 27 °C
Temperature Min: 27 °C
Humidité : 51%
Condition : Nuageux


WEBCAM POUR PUYLAURENS

Réglementation

Voler en sécurité

CARTES AERONAUTIQUE 1/500.000
CARTE AZBA (Reseau basse altitude)
CARTES VAC (LFCK)
SUP AIP




Chargement des AIP...
NOTAM (PUYLAURENS + Terrain à proximité / FIR )




Chargement des NOTAMS...
CONTACT PREFECTURE 81
Tarn (81) : [email protected]


Avertissement : Les données mises à disposition sont indicatives. Oxygène Drone ne pourra être tenu responsable de dégâts causés aux biens et aux personnes.